createdAt,value
2022-10-23T00:00:43.959Z,11.40
2022-10-23T00:03:10.477Z,11.57
2022-10-23T00:05:40.773Z,10.88
2022-10-23T00:08:07.982Z,10.77
2022-10-23T00:10:34.569Z,10.30
2022-10-23T00:13:01.046Z,10.27
2022-10-23T00:15:27.503Z,9.80
2022-10-23T00:17:54.251Z,10.65
2022-10-23T00:20:21.803Z,10.80
2022-10-23T00:22:48.265Z,10.63
2022-10-23T00:25:16.347Z,12.05
2022-10-23T00:27:43.354Z,11.97
2022-10-23T00:30:10.962Z,11.68
2022-10-23T00:32:38.150Z,11.60
2022-10-23T00:35:05.167Z,10.32
2022-10-23T00:37:31.678Z,10.50
2022-10-23T00:39:58.091Z,10.80
2022-10-23T00:42:24.654Z,9.70
2022-10-23T00:44:51.040Z,10.65
2022-10-23T00:47:17.988Z,10.50
2022-10-23T00:49:44.443Z,11.45
2022-10-23T00:52:13.359Z,10.27
2022-10-23T00:54:43.234Z,10.55
2022-10-23T00:57:14.813Z,10.05
2022-10-23T00:59:41.460Z,9.98
2022-10-23T01:02:08.614Z,10.57
2022-10-23T01:04:36.079Z,9.40
2022-10-23T01:07:11.963Z,10.48
2022-10-23T01:09:55.763Z,9.82
2022-10-23T01:12:54.473Z,9.35
2022-10-23T01:15:31.083Z,9.85
2022-10-23T01:18:11.795Z,9.90
2022-10-23T01:20:40.915Z,9.57
2022-10-23T01:23:36.830Z,9.65
2022-10-23T01:26:22.792Z,10.00
2022-10-23T01:28:59.828Z,10.60
2022-10-23T01:31:38.335Z,10.13
2022-10-23T01:34:19.185Z,10.18
2022-10-23T01:36:49.066Z,11.13
2022-10-23T01:39:22.203Z,11.73
2022-10-23T01:42:21.744Z,10.95
2022-10-23T01:45:03.147Z,9.53
2022-10-23T01:47:32.890Z,10.70
2022-10-23T01:50:01.693Z,11.23
2022-10-23T01:52:28.326Z,10.10
2022-10-23T01:54:59.555Z,10.90
2022-10-23T01:57:29.310Z,9.47
2022-10-23T01:59:59.914Z,10.25
2022-10-23T02:02:28.468Z,10.88
2022-10-23T02:05:14.349Z,10.18
2022-10-23T02:07:41.032Z,9.00
2022-10-23T02:10:09.694Z,9.10
2022-10-23T02:13:09.058Z,10.82
2022-10-23T02:15:46.650Z,9.75
2022-10-23T02:18:39.088Z,10.65
2022-10-23T02:21:05.460Z,10.23
2022-10-23T02:23:59.430Z,9.20
2022-10-23T02:26:37.962Z,9.30
2022-10-23T02:29:17.117Z,9.48
2022-10-23T02:31:43.823Z,9.32
2022-10-23T02:34:10.294Z,9.25
2022-10-23T02:36:37.496Z,9.77
2022-10-23T02:39:04.952Z,9.65
2022-10-23T02:41:36.298Z,9.18
2022-10-23T02:44:21.419Z,9.02
2022-10-23T02:47:12.613Z,9.95
2022-10-23T02:49:58.422Z,9.00
2022-10-23T02:52:35.506Z,8.77
2022-10-23T02:55:24.541Z,9.18
2022-10-23T02:57:56.780Z,8.85
2022-10-23T03:00:24.292Z,8.75
2022-10-23T03:03:06.581Z,9.33
2022-10-23T03:05:38.111Z,9.27
2022-10-23T03:08:08.227Z,9.40
2022-10-23T03:10:35.225Z,9.30
2022-10-23T03:13:02.201Z,8.65
2022-10-23T03:15:28.618Z,8.20
2022-10-23T03:17:55.293Z,9.15
2022-10-23T03:20:21.732Z,9.20
2022-10-23T03:22:48.195Z,9.27
2022-10-23T03:25:14.886Z,8.63
2022-10-23T03:27:41.334Z,8.10
2022-10-23T03:30:08.600Z,8.52
2022-10-23T03:32:35.028Z,8.90
2022-10-23T03:35:01.557Z,9.00
2022-10-23T03:37:28.082Z,8.93
2022-10-23T03:39:54.570Z,9.30
2022-10-23T03:42:20.977Z,8.43
2022-10-23T03:44:47.508Z,9.15
2022-10-23T03:47:14.059Z,8.13
2022-10-23T03:49:40.539Z,9.27
2022-10-23T03:52:08.047Z,8.60
2022-10-23T03:54:35.051Z,8.45
2022-10-23T03:57:02.099Z,8.30
2022-10-23T03:59:28.621Z,7.90
2022-10-23T04:01:55.468Z,8.43
2022-10-23T04:04:22.008Z,7.23
2022-10-23T04:06:48.520Z,7.40
2022-10-23T04:09:15.248Z,7.20
2022-10-23T04:11:41.676Z,7.18
2022-10-23T04:14:08.182Z,7.28
2022-10-23T04:16:34.618Z,8.00
2022-10-23T04:19:01.050Z,7.18
2022-10-23T04:21:27.488Z,7.13
2022-10-23T04:23:53.993Z,6.97
2022-10-23T04:26:20.451Z,7.13
2022-10-23T04:28:46.967Z,6.73
2022-10-23T04:31:13.411Z,7.38
2022-10-23T04:33:39.986Z,7.72
2022-10-23T04:36:06.768Z,6.78
2022-10-23T04:38:33.250Z,7.10
2022-10-23T04:40:59.682Z,7.07
2022-10-23T04:43:26.157Z,7.05
2022-10-23T04:45:52.566Z,7.55
2022-10-23T04:48:19.101Z,6.28
2022-10-23T04:50:54.824Z,6.43
2022-10-23T04:53:21.252Z,5.50
2022-10-23T04:55:53.170Z,6.82
2022-10-23T04:58:20.301Z,6.35
2022-10-23T05:00:47.693Z,5.63
2022-10-23T05:03:14.248Z,6.40
2022-10-23T05:05:41.273Z,6.30
2022-10-23T05:08:08.029Z,6.28
2022-10-23T05:10:34.715Z,6.63
2022-10-23T05:13:01.758Z,6.55
2022-10-23T05:15:28.449Z,6.18
2022-10-23T05:17:59.060Z,6.23
2022-10-23T05:20:28.477Z,6.10
2022-10-23T05:22:59.202Z,6.03
2022-10-23T05:25:26.454Z,6.75
2022-10-23T05:27:52.903Z,6.82
2022-10-23T05:30:19.340Z,6.70
2022-10-23T05:32:46.254Z,7.32
2022-10-23T05:35:18.137Z,6.88
2022-10-23T05:37:47.015Z,6.85
2022-10-23T05:40:13.606Z,6.95
2022-10-23T05:42:41.655Z,7.60
2022-10-23T05:45:08.951Z,6.88
2022-10-23T05:47:35.647Z,7.78
2022-10-23T05:50:02.130Z,6.93
2022-10-23T05:52:28.581Z,6.80
2022-10-23T05:54:55.002Z,7.67
2022-10-23T05:57:21.496Z,6.28
2022-10-23T05:59:47.942Z,7.10
2022-10-23T06:02:14.461Z,6.18
2022-10-23T06:04:40.961Z,6.60
2022-10-23T06:07:07.433Z,6.13
2022-10-23T06:09:33.881Z,6.88
2022-10-23T06:12:02.227Z,6.47
2022-10-23T06:14:29.031Z,6.72
2022-10-23T06:16:55.525Z,6.30
2022-10-23T06:19:21.991Z,6.50
2022-10-23T06:21:48.458Z,6.40
2022-10-23T06:24:14.941Z,6.60
2022-10-23T06:26:41.376Z,6.68
2022-10-23T06:29:07.861Z,6.32
2022-10-23T06:31:34.473Z,7.20
2022-10-23T06:34:00.945Z,6.22
2022-10-23T06:36:27.608Z,5.90
2022-10-23T06:38:56.228Z,6.55
2022-10-23T06:41:23.193Z,5.82
2022-10-23T06:43:51.599Z,6.80
2022-10-23T06:46:19.207Z,6.85
2022-10-23T06:48:45.687Z,6.07
2022-10-23T06:51:14.595Z,7.10
2022-10-23T06:53:41.326Z,6.43
2022-10-23T06:56:08.442Z,6.60
2022-10-23T06:58:36.975Z,6.68
2022-10-23T07:01:06.290Z,6.28
2022-10-23T07:03:34.571Z,7.15
2022-10-23T07:06:02.162Z,6.40
2022-10-23T07:08:29.208Z,6.50
2022-10-23T07:10:55.680Z,6.95
2022-10-23T07:13:22.786Z,6.72
2022-10-23T07:15:49.279Z,6.60
2022-10-23T07:18:16.909Z,5.82
2022-10-23T07:20:43.771Z,6.63
2022-10-23T07:23:12.347Z,6.97
2022-10-23T07:25:38.778Z,6.40
2022-10-23T07:28:05.382Z,6.38
2022-10-23T07:30:31.878Z,6.15
2022-10-23T07:32:58.696Z,5.80
2022-10-23T07:35:25.190Z,6.25
2022-10-23T07:37:51.596Z,6.30
2022-10-23T07:40:18.827Z,6.00
2022-10-23T07:42:45.326Z,5.38
2022-10-23T07:45:12.518Z,6.47
2022-10-23T07:47:38.999Z,6.75
2022-10-23T07:50:05.918Z,6.30
2022-10-23T07:52:35.819Z,5.85
2022-10-23T07:55:02.863Z,6.10
2022-10-23T07:57:29.277Z,6.00
2022-10-23T07:59:55.777Z,5.88
2022-10-23T08:02:22.280Z,5.30
2022-10-23T08:04:49.695Z,5.85
2022-10-23T08:07:16.168Z,5.53
2022-10-23T08:09:42.726Z,5.80
2022-10-23T08:12:09.613Z,5.72
2022-10-23T08:14:36.077Z,5.43
2022-10-23T08:17:03.207Z,6.22
2022-10-23T08:19:29.813Z,5.57
2022-10-23T08:21:57.292Z,5.33
2022-10-23T08:24:23.831Z,6.00
2022-10-23T08:26:50.666Z,5.35
2022-10-23T08:29:17.106Z,5.32
2022-10-23T08:31:43.699Z,7.38
2022-10-23T08:34:10.122Z,6.03
2022-10-23T08:36:39.143Z,5.60
2022-10-23T08:39:05.994Z,5.07
2022-10-23T08:41:36.262Z,5.25
2022-10-23T08:44:10.148Z,5.57
2022-10-23T08:46:44.633Z,5.60
2022-10-23T08:49:20.574Z,5.35
2022-10-23T08:51:51.813Z,5.38
2022-10-23T08:54:28.665Z,5.70
2022-10-23T08:57:03.579Z,5.25
2022-10-23T08:59:39.574Z,4.50
2022-10-23T09:02:17.194Z,5.15
2022-10-23T09:04:48.052Z,5.30
2022-10-23T09:07:32.266Z,5.13
2022-10-23T09:10:36.391Z,4.88
2022-10-23T09:13:24.143Z,5.53
2022-10-23T09:16:14.671Z,6.13
2022-10-23T09:18:42.421Z,5.22
2022-10-23T09:21:09.896Z,4.70
2022-10-23T09:23:36.773Z,5.07
2022-10-23T09:26:12.394Z,4.43
2022-10-23T09:28:51.042Z,5.40
2022-10-23T09:31:19.219Z,4.78
2022-10-23T09:33:57.476Z,4.95
2022-10-23T09:36:25.808Z,5.00
2022-10-23T09:38:54.354Z,5.43
2022-10-23T09:41:29.626Z,4.65
2022-10-23T09:44:17.300Z,4.85
2022-10-23T09:46:46.634Z,5.18
2022-10-23T09:49:33.760Z,4.55
2022-10-23T09:52:19.907Z,4.70
2022-10-23T09:54:50.472Z,3.88
2022-10-23T09:57:22.892Z,4.10
2022-10-23T09:59:55.266Z,4.15
2022-10-23T10:02:28.107Z,4.05
2022-10-23T10:04:54.887Z,3.77
2022-10-23T10:07:26.887Z,4.00
2022-10-23T10:09:55.457Z,4.50
2022-10-23T10:12:24.761Z,3.95
2022-10-23T10:15:10.947Z,3.92
2022-10-23T10:17:52.558Z,3.43
2022-10-23T10:20:39.123Z,4.00
2022-10-23T10:23:17.917Z,4.22
2022-10-23T10:26:02.767Z,3.78
2022-10-23T10:28:44.418Z,3.80
2022-10-23T10:31:20.193Z,3.20
2022-10-23T10:34:00.741Z,3.60
2022-10-23T10:36:30.249Z,3.90
2022-10-23T10:39:03.212Z,3.75
2022-10-23T10:41:54.819Z,3.38
2022-10-23T10:44:46.654Z,3.80
2022-10-23T10:47:33.292Z,3.80
2022-10-23T10:50:18.844Z,3.78
2022-10-23T10:53:02.653Z,3.40
2022-10-23T10:55:40.853Z,3.40
2022-10-23T10:58:22.519Z,3.13
2022-10-23T11:00:55.873Z,3.92
2022-10-23T11:03:39.988Z,3.17
2022-10-23T11:06:13.630Z,3.60
2022-10-23T11:08:56.146Z,4.07
2022-10-23T11:11:32.031Z,3.30
2022-10-23T11:13:58.945Z,3.60
2022-10-23T11:16:38.227Z,3.60
2022-10-23T11:19:11.285Z,3.35
2022-10-23T11:21:47.539Z,2.95
2022-10-23T11:24:59.203Z,3.00
2022-10-23T11:27:31.631Z,3.63
2022-10-23T11:30:41.269Z,3.25
2022-10-23T11:33:28.511Z,3.72
2022-10-23T11:36:05.909Z,2.88
2022-10-23T11:38:36.435Z,2.93
2022-10-23T11:41:16.025Z,3.15
2022-10-23T11:43:49.958Z,2.80
2022-10-23T11:46:22.244Z,3.25
2022-10-23T11:48:50.047Z,3.13
2022-10-23T11:51:39.291Z,3.17
2022-10-23T11:54:10.207Z,3.10
2022-10-23T11:57:14.201Z,2.90
2022-10-23T11:59:49.438Z,3.08
2022-10-23T12:02:38.406Z,3.42
2022-10-23T12:05:25.987Z,3.20
2022-10-23T12:08:01.196Z,2.90
2022-10-23T12:10:37.236Z,3.38
2022-10-23T12:13:06.563Z,3.10
2022-10-23T12:15:36.586Z,3.72
2022-10-23T12:18:15.033Z,2.90
2022-10-23T12:20:51.818Z,2.83
2022-10-23T12:23:48.169Z,3.10
2022-10-23T12:26:25.791Z,2.95
2022-10-23T12:29:10.983Z,2.83
2022-10-23T12:32:04.165Z,2.87
2022-10-23T12:35:07.086Z,2.75
2022-10-23T12:37:37.716Z,2.80
2022-10-23T12:40:09.059Z,3.00
2022-10-23T12:42:37.131Z,2.88
2022-10-23T12:45:17.030Z,2.37
2022-10-23T12:47:45.657Z,2.90
2022-10-23T12:50:27.523Z,3.22
2022-10-23T12:52:56.753Z,2.40
2022-10-23T12:55:25.033Z,2.70
2022-10-23T12:57:52.770Z,2.63
2022-10-23T13:00:22.506Z,3.45
2022-10-23T13:03:03.786Z,3.03
2022-10-23T13:05:32.222Z,2.90
2022-10-23T13:08:00.572Z,3.10
2022-10-23T13:10:27.341Z,2.87
2022-10-23T13:13:00.357Z,3.55
2022-10-23T13:15:41.034Z,3.00
2022-10-23T13:18:09.317Z,3.38
2022-10-23T13:20:38.522Z,3.35
2022-10-23T13:23:07.741Z,3.03
2022-10-23T13:25:36.010Z,2.70
2022-10-23T13:28:08.534Z,2.60
2022-10-23T13:30:38.124Z,3.22
2022-10-23T13:33:43.682Z,3.13
2022-10-23T13:36:13.296Z,3.07
2022-10-23T13:39:03.694Z,3.95
2022-10-23T13:41:36.969Z,3.30
2022-10-23T13:44:03.757Z,3.30
2022-10-23T13:46:30.291Z,3.60
2022-10-23T13:48:56.725Z,3.07
2022-10-23T13:51:26.336Z,3.00
2022-10-23T13:53:53.792Z,3.25
2022-10-23T13:56:22.350Z,3.28
2022-10-23T13:58:49.446Z,2.83
2022-10-23T14:01:22.361Z,4.27
2022-10-23T14:03:50.081Z,3.63
2022-10-23T14:06:16.869Z,3.47
2022-10-23T14:08:43.611Z,3.22
2022-10-23T14:13:47.831Z,4.10
2022-10-23T14:16:19.437Z,7.90
2022-10-23T14:18:46.579Z,20.10
2022-10-23T14:21:15.293Z,13.15
2022-10-23T14:23:41.788Z,11.50
2022-10-23T14:26:15.549Z,5.17
2022-10-23T14:28:42.410Z,11.55
2022-10-23T14:31:14.525Z,4.68
2022-10-23T14:33:43.209Z,3.70
2022-10-23T14:36:09.980Z,4.28
2022-10-23T14:38:36.730Z,3.50
2022-10-23T14:41:09.421Z,3.70
2022-10-23T14:43:35.887Z,3.25
2022-10-23T14:46:13.240Z,4.07
2022-10-23T14:48:40.469Z,5.63
2022-10-23T14:51:15.933Z,4.23
2022-10-23T14:53:42.617Z,3.55
2022-10-23T14:56:09.168Z,3.72
2022-10-23T14:58:35.588Z,3.78
2022-10-23T15:01:02.531Z,4.13
2022-10-23T15:03:29.288Z,4.30
2022-10-23T15:05:56.214Z,3.70
2022-10-23T15:08:23.479Z,4.72
2022-10-23T15:10:50.407Z,4.05
2022-10-23T15:13:16.904Z,5.35
2022-10-23T15:15:43.875Z,4.17
2022-10-23T15:18:10.432Z,5.05
2022-10-23T15:20:36.905Z,4.45
2022-10-23T15:23:03.822Z,4.82
2022-10-23T15:25:30.502Z,3.65
2022-10-23T15:27:56.913Z,4.13
2022-10-23T15:30:23.399Z,4.32
2022-10-23T15:32:49.865Z,3.97
2022-10-23T15:35:17.615Z,3.88
2022-10-23T15:37:44.285Z,3.97
2022-10-23T15:40:11.215Z,4.47
2022-10-23T15:42:37.657Z,3.83
2022-10-23T15:45:04.371Z,4.50
2022-10-23T15:47:30.779Z,5.20
2022-10-23T15:49:57.339Z,6.10
2022-10-23T15:52:23.794Z,4.00
2022-10-23T15:54:50.251Z,4.75
2022-10-23T15:57:16.750Z,5.60
2022-10-23T15:59:43.160Z,6.22
2022-10-23T16:02:11.571Z,8.30
2022-10-23T16:04:38.114Z,8.23
2022-10-23T16:07:04.650Z,6.88
2022-10-23T16:09:31.152Z,5.10
2022-10-23T16:11:57.579Z,6.72
2022-10-23T16:14:24.104Z,5.70
2022-10-23T16:16:50.677Z,4.87
2022-10-23T16:19:17.209Z,7.38
2022-10-23T16:21:43.695Z,4.93
2022-10-23T16:24:10.931Z,4.22
2022-10-23T16:26:38.152Z,4.30
2022-10-23T16:29:06.788Z,4.00
2022-10-23T16:31:33.557Z,5.88
2022-10-23T16:34:01.471Z,4.80
2022-10-23T16:36:28.757Z,4.03
2022-10-23T16:38:55.651Z,3.80
2022-10-23T16:41:22.094Z,35.00
2022-10-23T16:43:48.599Z,13.38
2022-10-23T16:46:18.998Z,15.90
2022-10-23T16:48:46.596Z,27.35
2022-10-23T16:51:15.411Z,7.32
2022-10-23T16:53:42.999Z,5.03
2022-10-23T16:56:10.974Z,4.63
2022-10-23T16:58:40.793Z,5.20
2022-10-23T17:01:15.918Z,6.32
2022-10-23T17:03:47.759Z,5.05
2022-10-23T17:06:16.847Z,4.53
2022-10-23T17:08:43.560Z,5.90
2022-10-23T17:11:11.438Z,6.30
2022-10-23T17:13:41.230Z,4.93
2022-10-23T17:16:11.502Z,4.90
2022-10-23T17:18:42.871Z,5.27
2022-10-23T17:21:11.921Z,14.30
2022-10-23T17:23:38.395Z,5.78
2022-10-23T17:26:10.854Z,6.60
2022-10-23T17:28:40.424Z,5.28
2022-10-23T17:31:13.017Z,6.07
2022-10-23T17:33:40.478Z,5.63
2022-10-23T17:36:07.506Z,5.97
2022-10-23T17:38:38.791Z,5.45
2022-10-23T17:41:06.479Z,4.95
2022-10-23T17:43:34.094Z,7.73
2022-10-23T17:46:00.819Z,5.70
2022-10-23T17:48:27.637Z,6.15
2022-10-23T17:51:03.196Z,6.05
2022-10-23T17:53:30.143Z,5.28
2022-10-23T17:55:56.695Z,5.50
2022-10-23T17:58:23.694Z,4.75
2022-10-23T18:00:50.167Z,4.55
2022-10-23T18:03:19.789Z,3.63
2022-10-23T18:05:46.726Z,4.05
2022-10-23T18:08:13.375Z,4.13
2022-10-23T18:10:39.957Z,4.47
2022-10-23T18:13:06.465Z,4.88
2022-10-23T18:15:35.639Z,3.67
2022-10-23T18:18:07.702Z,12.45
2022-10-23T18:20:40.157Z,4.40
2022-10-23T18:23:07.394Z,3.90
2022-10-23T18:25:34.187Z,4.13
2022-10-23T18:28:02.539Z,4.28
2022-10-23T18:30:29.555Z,4.30
2022-10-23T18:32:58.117Z,4.63
2022-10-23T18:35:25.172Z,3.92
2022-10-23T18:37:51.656Z,4.18
2022-10-23T18:40:18.415Z,4.22
2022-10-23T18:42:45.209Z,4.65
2022-10-23T18:45:13.386Z,4.00
2022-10-23T18:47:39.853Z,4.78
2022-10-23T18:50:06.903Z,4.68
2022-10-23T18:52:33.442Z,4.50
2022-10-23T18:55:00.247Z,4.75
2022-10-23T18:57:26.716Z,4.27
2022-10-23T18:59:56.219Z,5.22
2022-10-23T19:02:22.822Z,4.00
2022-10-23T19:04:49.424Z,5.05
2022-10-23T19:07:15.967Z,11.07
2022-10-23T19:09:42.750Z,4.60
2022-10-23T19:12:10.266Z,4.45
2022-10-23T19:14:36.852Z,4.70
2022-10-23T19:17:08.019Z,4.32
2022-10-23T19:19:57.104Z,4.35
2022-10-23T19:22:23.813Z,4.23
2022-10-23T19:24:56.279Z,4.60
2022-10-23T19:27:23.047Z,5.03
2022-10-23T19:29:51.659Z,5.28
2022-10-23T19:32:18.266Z,4.38
2022-10-23T19:34:45.392Z,4.50
2022-10-23T19:37:11.768Z,4.43
2022-10-23T19:39:38.459Z,5.03
2022-10-23T19:42:04.938Z,4.95
2022-10-23T19:44:31.546Z,5.22
2022-10-23T19:46:57.949Z,5.57
2022-10-23T19:49:24.480Z,5.40
2022-10-23T19:51:51.659Z,6.00
2022-10-23T19:54:19.466Z,4.18
2022-10-23T19:56:45.954Z,5.28
2022-10-23T19:59:15.778Z,4.93
2022-10-23T20:01:45.063Z,4.15
2022-10-23T20:04:15.408Z,4.15
2022-10-23T20:06:41.887Z,4.72
2022-10-23T20:09:09.795Z,4.28
2022-10-23T20:11:38.153Z,4.03
2022-10-23T20:14:04.602Z,3.75
2022-10-23T20:16:33.927Z,3.72
2022-10-23T20:19:03.175Z,3.08
2022-10-23T20:21:30.069Z,3.35
2022-10-23T20:23:57.686Z,3.33
2022-10-23T20:26:24.643Z,3.10
2022-10-23T20:28:55.625Z,2.92
2022-10-23T20:31:24.347Z,3.03
2022-10-23T20:33:51.553Z,2.90
2022-10-23T20:36:24.715Z,2.93
2022-10-23T20:38:51.397Z,3.00
2022-10-23T20:41:17.959Z,2.90
2022-10-23T20:43:44.676Z,2.58
2022-10-23T20:46:11.095Z,3.40
2022-10-23T20:48:43.060Z,2.53
2022-10-23T20:51:12.469Z,3.00
2022-10-23T20:53:40.180Z,2.72
2022-10-23T20:56:13.514Z,2.53
2022-10-23T20:58:40.438Z,2.72
2022-10-23T21:01:12.615Z,2.20
2022-10-23T21:03:39.566Z,2.50
2022-10-23T21:06:14.342Z,2.38
2022-10-23T21:08:41.529Z,2.97
2022-10-23T21:11:11.229Z,2.80
2022-10-23T21:13:38.158Z,1.90
2022-10-23T21:16:24.793Z,2.15
2022-10-23T21:18:55.853Z,2.25
2022-10-23T21:21:23.012Z,2.58
2022-10-23T21:23:52.065Z,2.78
2022-10-23T21:26:20.932Z,2.60
2022-10-23T21:28:56.337Z,2.78
2022-10-23T21:31:33.598Z,2.63
2022-10-23T21:34:00.150Z,2.65
2022-10-23T21:36:27.477Z,2.42
2022-10-23T21:38:55.798Z,2.70
2022-10-23T21:41:25.481Z,2.83
2022-10-23T21:43:53.882Z,3.03
2022-10-23T21:46:20.462Z,2.70
2022-10-23T21:48:48.181Z,3.92
2022-10-23T21:51:33.918Z,2.93
2022-10-23T21:54:00.344Z,3.83
2022-10-23T21:56:33.936Z,3.47
2022-10-23T21:59:02.273Z,3.03
2022-10-23T22:01:29.612Z,3.08
2022-10-23T22:03:56.462Z,3.10
2022-10-23T22:06:25.502Z,2.55
2022-10-23T22:08:53.306Z,2.33
2022-10-23T22:11:20.163Z,2.92
2022-10-23T22:13:47.215Z,2.60
2022-10-23T22:16:15.193Z,2.87
2022-10-23T22:18:42.235Z,3.00
2022-10-23T22:21:11.789Z,3.95
2022-10-23T22:23:38.677Z,3.38
2022-10-23T22:26:08.004Z,3.63
2022-10-23T22:28:34.406Z,3.40
2022-10-23T22:31:01.872Z,3.38
2022-10-23T22:33:30.806Z,2.72
2022-10-23T22:36:01.801Z,3.00
2022-10-23T22:38:30.173Z,3.10
2022-10-23T22:40:56.571Z,2.70
2022-10-23T22:43:23.103Z,2.88
2022-10-23T22:45:49.558Z,2.80
2022-10-23T22:48:16.062Z,2.58
2022-10-23T22:50:42.523Z,3.38
2022-10-23T22:53:08.977Z,3.10
2022-10-23T22:55:36.579Z,3.03
2022-10-23T22:58:03.097Z,2.72
2022-10-23T23:00:29.546Z,3.00
2022-10-23T23:02:59.118Z,2.60
2022-10-23T23:05:25.546Z,2.60
2022-10-23T23:07:51.977Z,3.00
2022-10-23T23:10:18.388Z,2.60
2022-10-23T23:12:44.781Z,3.25
2022-10-23T23:15:11.243Z,2.47
2022-10-23T23:17:37.670Z,3.00
2022-10-23T23:20:04.413Z,3.80
2022-10-23T23:22:30.846Z,3.33
2022-10-23T23:24:57.287Z,3.40
2022-10-23T23:27:23.751Z,3.58
2022-10-23T23:29:50.221Z,3.70
2022-10-23T23:32:16.697Z,3.28
2022-10-23T23:34:43.079Z,4.10
2022-10-23T23:37:09.637Z,3.60
2022-10-23T23:39:36.072Z,3.60
2022-10-23T23:42:02.506Z,3.93
2022-10-23T23:44:28.939Z,3.88
2022-10-23T23:46:55.900Z,4.05
2022-10-23T23:49:22.764Z,4.18
2022-10-23T23:51:49.201Z,3.60
2022-10-23T23:54:15.729Z,3.17
2022-10-23T23:56:42.322Z,3.40
2022-10-23T23:59:08.828Z,3.63
